sensor_id;sensor_type;location;lat;lon;timestamp;temperature;humidity
19206;DHT22;59358;52.134;5.596;2023-06-24T00:02:12;18.80;99.90
19206;DHT22;59358;52.134;5.596;2023-06-24T00:04:38;18.80;99.90
19206;DHT22;59358;52.134;5.596;2023-06-24T00:07:05;18.80;99.90
19206;DHT22;59358;52.134;5.596;2023-06-24T00:09:32;18.80;99.90
19206;DHT22;59358;52.134;5.596;2023-06-24T00:12:02;18.80;99.90
19206;DHT22;59358;52.134;5.596;2023-06-24T00:14:29;18.80;99.90
19206;DHT22;59358;52.134;5.596;2023-06-24T00:16:56;18.80;99.90
19206;DHT22;59358;52.134;5.596;2023-06-24T00:19:24;18.80;99.90
19206;DHT22;59358;52.134;5.596;2023-06-24T00:21:52;18.80;99.90
19206;DHT22;59358;52.134;5.596;2023-06-24T00:24:19;18.80;99.90
19206;DHT22;59358;52.134;5.596;2023-06-24T00:26:47;18.80;99.90
19206;DHT22;59358;52.134;5.596;2023-06-24T00:29:15;18.70;99.90
19206;DHT22;59358;52.134;5.596;2023-06-24T00:31:42;18.70;99.90
19206;DHT22;59358;52.134;5.596;2023-06-24T00:34:09;18.60;99.90
19206;DHT22;59358;52.134;5.596;2023-06-24T00:36:35;18.50;99.90
19206;DHT22;59358;52.134;5.596;2023-06-24T00:39:03;18.50;99.90
19206;DHT22;59358;52.134;5.596;2023-06-24T00:41:30;18.40;99.90
19206;DHT22;59358;52.134;5.596;2023-06-24T00:43:57;18.30;99.90
19206;DHT22;59358;52.134;5.596;2023-06-24T00:46:27;18.20;99.90
19206;DHT22;59358;52.134;5.596;2023-06-24T00:48:55;18.20;99.90
19206;DHT22;59358;52.134;5.596;2023-06-24T00:51:22;18.10;99.90
19206;DHT22;59358;52.134;5.596;2023-06-24T00:53:52;18.10;99.90
19206;DHT22;59358;52.134;5.596;2023-06-24T00:56:20;18.10;99.90
19206;DHT22;59358;52.134;5.596;2023-06-24T00:58:48;18.00;99.90
19206;DHT22;59358;52.134;5.596;2023-06-24T01:01:15;17.90;99.90
19206;DHT22;59358;52.134;5.596;2023-06-24T01:03:44;17.80;99.90
19206;DHT22;59358;52.134;5.596;2023-06-24T01:06:13;17.80;99.90
19206;DHT22;59358;52.134;5.596;2023-06-24T01:08:41;17.80;99.90
19206;DHT22;59358;52.134;5.596;2023-06-24T01:11:08;17.80;99.90
19206;DHT22;59358;52.134;5.596;2023-06-24T01:13:34;17.80;99.90
19206;DHT22;59358;52.134;5.596;2023-06-24T01:16:08;17.80;99.90
19206;DHT22;59358;52.134;5.596;2023-06-24T01:18:42;17.80;99.90
19206;DHT22;59358;52.134;5.596;2023-06-24T01:21:18;17.80;99.90
19206;DHT22;59358;52.134;5.596;2023-06-24T01:24:31;17.80;99.90
19206;DHT22;59358;52.134;5.596;2023-06-24T01:27:29;17.80;99.90
19206;DHT22;59358;52.134;5.596;2023-06-24T01:30:21;17.70;99.90
19206;DHT22;59358;52.134;5.596;2023-06-24T01:32:55;17.70;99.90
19206;DHT22;59358;52.134;5.596;2023-06-24T01:35:27;17.70;99.90
19206;DHT22;59358;52.134;5.596;2023-06-24T01:37:57;17.70;99.90
19206;DHT22;59358;52.134;5.596;2023-06-24T01:40:28;17.70;99.90
19206;DHT22;59358;52.134;5.596;2023-06-24T01:42:57;17.70;99.90
19206;DHT22;59358;52.134;5.596;2023-06-24T01:45:26;17.70;99.90
19206;DHT22;59358;52.134;5.596;2023-06-24T01:48:00;17.70;99.90
19206;DHT22;59358;52.134;5.596;2023-06-24T01:50:31;17.70;99.90
19206;DHT22;59358;52.134;5.596;2023-06-24T01:53:01;17.60;99.90
19206;DHT22;59358;52.134;5.596;2023-06-24T01:55:31;17.70;99.90
19206;DHT22;59358;52.134;5.596;2023-06-24T01:57:59;17.60;99.90
19206;DHT22;59358;52.134;5.596;2023-06-24T02:00:26;17.60;99.90
19206;DHT22;59358;52.134;5.596;2023-06-24T02:02:53;17.60;99.90
19206;DHT22;59358;52.134;5.596;2023-06-24T02:05:23;17.60;99.90
19206;DHT22;59358;52.134;5.596;2023-06-24T02:07:52;17.60;99.90
19206;DHT22;59358;52.134;5.596;2023-06-24T02:10:20;17.60;99.90
19206;DHT22;59358;52.134;5.596;2023-06-24T02:12:49;17.50;99.90
19206;DHT22;59358;52.134;5.596;2023-06-24T02:15:18;17.50;99.90
19206;DHT22;59358;52.134;5.596;2023-06-24T02:17:48;17.40;99.90
19206;DHT22;59358;52.134;5.596;2023-06-24T02:20:16;17.30;99.90
19206;DHT22;59358;52.134;5.596;2023-06-24T02:22:45;17.30;99.90
19206;DHT22;59358;52.134;5.596;2023-06-24T02:25:13;17.30;99.90
19206;DHT22;59358;52.134;5.596;2023-06-24T02:27:40;17.20;99.90
19206;DHT22;59358;52.134;5.596;2023-06-24T02:30:08;17.20;99.90
19206;DHT22;59358;52.134;5.596;2023-06-24T02:32:36;17.10;99.90
19206;DHT22;59358;52.134;5.596;2023-06-24T02:35:04;17.20;99.90
19206;DHT22;59358;52.134;5.596;2023-06-24T02:37:31;17.20;99.90
19206;DHT22;59358;52.134;5.596;2023-06-24T02:39:59;17.20;99.90
19206;DHT22;59358;52.134;5.596;2023-06-24T02:42:27;17.20;99.90
19206;DHT22;59358;52.134;5.596;2023-06-24T02:44:54;17.20;99.90
19206;DHT22;59358;52.134;5.596;2023-06-24T02:47:21;17.20;99.90
19206;DHT22;59358;52.134;5.596;2023-06-24T02:49:48;17.20;99.90
19206;DHT22;59358;52.134;5.596;2023-06-24T02:52:17;17.10;99.90
19206;DHT22;59358;52.134;5.596;2023-06-24T02:54:44;17.10;99.90
19206;DHT22;59358;52.134;5.596;2023-06-24T02:57:13;17.10;99.90
19206;DHT22;59358;52.134;5.596;2023-06-24T02:59:41;17.10;99.90
19206;DHT22;59358;52.134;5.596;2023-06-24T03:02:08;17.00;99.90
19206;DHT22;59358;52.134;5.596;2023-06-24T03:04:36;17.00;99.90
19206;DHT22;59358;52.134;5.596;2023-06-24T03:07:03;17.00;99.90
19206;DHT22;59358;52.134;5.596;2023-06-24T03:09:34;17.00;99.90
19206;DHT22;59358;52.134;5.596;2023-06-24T03:12:01;17.00;99.90
19206;DHT22;59358;52.134;5.596;2023-06-24T03:14:29;16.90;99.90
19206;DHT22;59358;52.134;5.596;2023-06-24T03:16:56;16.90;99.90
19206;DHT22;59358;52.134;5.596;2023-06-24T03:19:23;16.90;99.90
19206;DHT22;59358;52.134;5.596;2023-06-24T03:21:50;16.90;99.90
19206;DHT22;59358;52.134;5.596;2023-06-24T03:24:17;16.90;99.90
19206;DHT22;59358;52.134;5.596;2023-06-24T03:26:44;16.80;99.90
19206;DHT22;59358;52.134;5.596;2023-06-24T03:29:11;16.80;99.90
19206;DHT22;59358;52.134;5.596;2023-06-24T03:31:39;16.80;99.90
19206;DHT22;59358;52.134;5.596;2023-06-24T03:34:09;16.70;99.90
19206;DHT22;59358;52.134;5.596;2023-06-24T03:36:36;16.70;99.90
19206;DHT22;59358;52.134;5.596;2023-06-24T03:39:04;16.70;99.90
19206;DHT22;59358;52.134;5.596;2023-06-24T03:41:32;16.70;99.90
19206;DHT22;59358;52.134;5.596;2023-06-24T03:43:59;16.70;99.90
19206;DHT22;59358;52.134;5.596;2023-06-24T03:46:25;16.70;99.90
19206;DHT22;59358;52.134;5.596;2023-06-24T03:48:55;16.70;99.90
19206;DHT22;59358;52.134;5.596;2023-06-24T03:51:22;16.70;99.90
19206;DHT22;59358;52.134;5.596;2023-06-24T03:53:49;16.70;99.90
19206;DHT22;59358;52.134;5.596;2023-06-24T03:56:17;16.70;99.90
19206;DHT22;59358;52.134;5.596;2023-06-24T03:58:44;16.70;99.90
19206;DHT22;59358;52.134;5.596;2023-06-24T04:01:11;16.80;99.90
19206;DHT22;59358;52.134;5.596;2023-06-24T04:03:37;17.00;99.90
19206;DHT22;59358;52.134;5.596;2023-06-24T04:06:05;17.10;99.90
19206;DHT22;59358;52.134;5.596;2023-06-24T04:08:32;17.10;99.90
19206;DHT22;59358;52.134;5.596;2023-06-24T04:10:59;17.00;99.90
19206;DHT22;59358;52.134;5.596;2023-06-24T04:13:28;17.10;99.90
19206;DHT22;59358;52.134;5.596;2023-06-24T04:15:55;17.10;99.90
19206;DHT22;59358;52.134;5.596;2023-06-24T04:18:21;17.10;99.90
19206;DHT22;59358;52.134;5.596;2023-06-24T04:20:48;17.20;99.90
19206;DHT22;59358;52.134;5.596;2023-06-24T04:23:16;17.10;99.90
19206;DHT22;59358;52.134;5.596;2023-06-24T04:25:43;17.20;99.90
19206;DHT22;59358;52.134;5.596;2023-06-24T04:28:10;17.20;99.90
19206;DHT22;59358;52.134;5.596;2023-06-24T04:30:37;17.30;99.90
19206;DHT22;59358;52.134;5.596;2023-06-24T04:33:05;17.30;99.90
19206;DHT22;59358;52.134;5.596;2023-06-24T04:35:31;17.30;99.90
19206;DHT22;59358;52.134;5.596;2023-06-24T04:37:58;17.40;99.90
19206;DHT22;59358;52.134;5.596;2023-06-24T04:40:27;17.40;99.90
19206;DHT22;59358;52.134;5.596;2023-06-24T04:42:53;17.40;99.90
19206;DHT22;59358;52.134;5.596;2023-06-24T04:45:20;17.50;99.90
19206;DHT22;59358;52.134;5.596;2023-06-24T04:47:47;17.60;99.90
19206;DHT22;59358;52.134;5.596;2023-06-24T04:50:14;17.70;99.90
19206;DHT22;59358;52.134;5.596;2023-06-24T04:52:41;17.80;99.90
19206;DHT22;59358;52.134;5.596;2023-06-24T04:55:08;17.80;99.90
19206;DHT22;59358;52.134;5.596;2023-06-24T04:57:36;17.90;99.90
19206;DHT22;59358;52.134;5.596;2023-06-24T05:00:04;18.00;99.90
19206;DHT22;59358;52.134;5.596;2023-06-24T05:02:32;18.00;99.90
19206;DHT22;59358;52.134;5.596;2023-06-24T05:04:59;18.10;99.90
19206;DHT22;59358;52.134;5.596;2023-06-24T05:07:26;18.10;99.90
19206;DHT22;59358;52.134;5.596;2023-06-24T05:09:52;18.20;99.90
19206;DHT22;59358;52.134;5.596;2023-06-24T05:12:19;18.30;99.90
19206;DHT22;59358;52.134;5.596;2023-06-24T05:14:50;18.30;99.90
19206;DHT22;59358;52.134;5.596;2023-06-24T05:17:18;18.40;99.90
19206;DHT22;59358;52.134;5.596;2023-06-24T05:19:45;18.50;99.90
19206;DHT22;59358;52.134;5.596;2023-06-24T05:22:12;18.60;99.90
19206;DHT22;59358;52.134;5.596;2023-06-24T05:24:39;18.60;99.90
19206;DHT22;59358;52.134;5.596;2023-06-24T05:27:07;18.60;99.90
19206;DHT22;59358;52.134;5.596;2023-06-24T05:29:34;18.70;99.90
19206;DHT22;59358;52.134;5.596;2023-06-24T05:32:03;18.70;99.90
19206;DHT22;59358;52.134;5.596;2023-06-24T05:34:30;18.80;99.90
19206;DHT22;59358;52.134;5.596;2023-06-24T05:36:58;18.70;99.90
19206;DHT22;59358;52.134;5.596;2023-06-24T05:39:25;18.70;99.90
19206;DHT22;59358;52.134;5.596;2023-06-24T05:41:52;18.90;99.90
19206;DHT22;59358;52.134;5.596;2023-06-24T05:44:18;19.00;99.90
19206;DHT22;59358;52.134;5.596;2023-06-24T05:46:46;19.10;99.90
19206;DHT22;59358;52.134;5.596;2023-06-24T05:49:14;19.20;99.90
19206;DHT22;59358;52.134;5.596;2023-06-24T05:51:41;19.30;99.90
19206;DHT22;59358;52.134;5.596;2023-06-24T05:54:08;19.30;99.90
19206;DHT22;59358;52.134;5.596;2023-06-24T05:56:35;19.50;99.90
19206;DHT22;59358;52.134;5.596;2023-06-24T05:59:02;19.50;99.90
19206;DHT22;59358;52.134;5.596;2023-06-24T06:01:29;19.60;99.90
19206;DHT22;59358;52.134;5.596;2023-06-24T06:03:56;19.60;99.90
19206;DHT22;59358;52.134;5.596;2023-06-24T06:06:24;19.60;99.90
19206;DHT22;59358;52.134;5.596;2023-06-24T06:08:51;19.70;99.90
19206;DHT22;59358;52.134;5.596;2023-06-24T06:11:18;19.90;99.90
19206;DHT22;59358;52.134;5.596;2023-06-24T06:13:45;19.80;99.90
19206;DHT22;59358;52.134;5.596;2023-06-24T06:16:11;19.90;99.90
19206;DHT22;59358;52.134;5.596;2023-06-24T06:18:38;20.00;99.90
19206;DHT22;59358;52.134;5.596;2023-06-24T06:21:05;20.10;99.90
19206;DHT22;59358;52.134;5.596;2023-06-24T06:23:33;20.30;99.90
19206;DHT22;59358;52.134;5.596;2023-06-24T06:26:00;20.30;99.90
19206;DHT22;59358;52.134;5.596;2023-06-24T06:28:27;20.30;99.90
19206;DHT22;59358;52.134;5.596;2023-06-24T06:30:54;20.30;99.90
19206;DHT22;59358;52.134;5.596;2023-06-24T06:33:25;20.50;99.90
19206;DHT22;59358;52.134;5.596;2023-06-24T06:35:52;20.60;99.90
19206;DHT22;59358;52.134;5.596;2023-06-24T06:38:19;20.70;99.90
19206;DHT22;59358;52.134;5.596;2023-06-24T06:40:47;20.70;99.90
19206;DHT22;59358;52.134;5.596;2023-06-24T06:43:14;20.70;99.90
19206;DHT22;59358;52.134;5.596;2023-06-24T06:45:41;20.90;99.90
19206;DHT22;59358;52.134;5.596;2023-06-24T06:48:08;20.80;99.90
19206;DHT22;59358;52.134;5.596;2023-06-24T06:50:35;20.80;99.90
19206;DHT22;59358;52.134;5.596;2023-06-24T06:53:02;20.90;99.90
19206;DHT22;59358;52.134;5.596;2023-06-24T06:55:29;21.10;99.90
19206;DHT22;59358;52.134;5.596;2023-06-24T06:57:57;21.10;99.90
19206;DHT22;59358;52.134;5.596;2023-06-24T07:00:24;21.30;99.90
19206;DHT22;59358;52.134;5.596;2023-06-24T07:02:51;21.40;99.90
19206;DHT22;59358;52.134;5.596;2023-06-24T07:05:18;21.40;99.90
19206;DHT22;59358;52.134;5.596;2023-06-24T07:07:45;21.50;99.90
19206;DHT22;59358;52.134;5.596;2023-06-24T07:10:12;21.70;99.90
19206;DHT22;59358;52.134;5.596;2023-06-24T07:12:39;21.90;99.90
19206;DHT22;59358;52.134;5.596;2023-06-24T07:15:08;22.10;99.90
19206;DHT22;59358;52.134;5.596;2023-06-24T07:17:36;22.20;99.90
19206;DHT22;59358;52.134;5.596;2023-06-24T07:20:04;22.20;99.90
19206;DHT22;59358;52.134;5.596;2023-06-24T07:22:31;22.40;99.90
19206;DHT22;59358;52.134;5.596;2023-06-24T07:24:57;22.40;99.90
19206;DHT22;59358;52.134;5.596;2023-06-24T07:27:25;22.40;99.90
19206;DHT22;59358;52.134;5.596;2023-06-24T07:29:52;22.40;99.90
19206;DHT22;59358;52.134;5.596;2023-06-24T07:32:20;22.40;99.90
19206;DHT22;59358;52.134;5.596;2023-06-24T07:34:47;22.30;99.90
19206;DHT22;59358;52.134;5.596;2023-06-24T07:37:14;22.40;99.90
19206;DHT22;59358;52.134;5.596;2023-06-24T07:39:41;22.60;99.90
19206;DHT22;59358;52.134;5.596;2023-06-24T07:42:08;22.50;99.90
19206;DHT22;59358;52.134;5.596;2023-06-24T07:44:35;22.60;99.90
19206;DHT22;59358;52.134;5.596;2023-06-24T07:47:05;22.90;99.90
19206;DHT22;59358;52.134;5.596;2023-06-24T07:49:33;22.80;99.90
19206;DHT22;59358;52.134;5.596;2023-06-24T07:52:00;22.90;99.90
19206;DHT22;59358;52.134;5.596;2023-06-24T07:54:27;23.00;99.90
19206;DHT22;59358;52.134;5.596;2023-06-24T07:56:54;23.20;99.90
19206;DHT22;59358;52.134;5.596;2023-06-24T07:59:21;23.40;99.90
19206;DHT22;59358;52.134;5.596;2023-06-24T08:01:48;23.50;99.90
19206;DHT22;59358;52.134;5.596;2023-06-24T08:04:15;23.60;99.90
19206;DHT22;59358;52.134;5.596;2023-06-24T08:06:43;23.50;99.90
19206;DHT22;59358;52.134;5.596;2023-06-24T08:09:10;23.40;99.90
19206;DHT22;59358;52.134;5.596;2023-06-24T08:11:36;23.60;99.90
19206;DHT22;59358;52.134;5.596;2023-06-24T08:14:03;23.60;99.90
19206;DHT22;59358;52.134;5.596;2023-06-24T08:16:30;23.60;99.90
19206;DHT22;59358;52.134;5.596;2023-06-24T08:18:57;23.80;99.90
19206;DHT22;59358;52.134;5.596;2023-06-24T08:21:24;23.80;99.90
19206;DHT22;59358;52.134;5.596;2023-06-24T08:23:52;23.70;99.90
19206;DHT22;59358;52.134;5.596;2023-06-24T08:26:19;23.70;99.90
19206;DHT22;59358;52.134;5.596;2023-06-24T08:28:47;23.80;99.90
19206;DHT22;59358;52.134;5.596;2023-06-24T08:31:14;23.90;99.90
19206;DHT22;59358;52.134;5.596;2023-06-24T08:33:43;24.10;99.90
19206;DHT22;59358;52.134;5.596;2023-06-24T08:36:11;24.20;99.90
19206;DHT22;59358;52.134;5.596;2023-06-24T08:38:38;24.20;99.90
19206;DHT22;59358;52.134;5.596;2023-06-24T08:41:06;24.20;99.90
19206;DHT22;59358;52.134;5.596;2023-06-24T08:43:33;24.40;99.90
19206;DHT22;59358;52.134;5.596;2023-06-24T08:46:00;24.40;99.90
19206;DHT22;59358;52.134;5.596;2023-06-24T08:48:29;24.50;99.60
19206;DHT22;59358;52.134;5.596;2023-06-24T08:50:58;24.20;99.90
19206;DHT22;59358;52.134;5.596;2023-06-24T08:53:26;24.30;99.90
19206;DHT22;59358;52.134;5.596;2023-06-24T08:55:54;24.30;99.00
19206;DHT22;59358;52.134;5.596;2023-06-24T08:58:24;24.30;98.70
19206;DHT22;59358;52.134;5.596;2023-06-24T09:00:51;24.30;98.40
19206;DHT22;59358;52.134;5.596;2023-06-24T09:03:18;24.20;98.90
19206;DHT22;59358;52.134;5.596;2023-06-24T09:05:45;24.20;98.90
19206;DHT22;59358;52.134;5.596;2023-06-24T09:08:11;24.30;99.80
19206;DHT22;59358;52.134;5.596;2023-06-24T09:10:38;24.80;99.90
19206;DHT22;59358;52.134;5.596;2023-06-24T09:13:06;25.10;99.90
19206;DHT22;59358;52.134;5.596;2023-06-24T09:15:36;25.50;99.50
19206;DHT22;59358;52.134;5.596;2023-06-24T09:18:04;25.90;98.60
19206;DHT22;59358;52.134;5.596;2023-06-24T09:20:32;26.00;98.50
19206;DHT22;59358;52.134;5.596;2023-06-24T09:23:04;26.30;98.30
19206;DHT22;59358;52.134;5.596;2023-06-24T09:25:31;26.40;97.50
19206;DHT22;59358;52.134;5.596;2023-06-24T09:27:58;26.20;97.50
19206;DHT22;59358;52.134;5.596;2023-06-24T09:30:26;26.10;97.40
19206;DHT22;59358;52.134;5.596;2023-06-24T09:32:55;26.20;97.40
19206;DHT22;59358;52.134;5.596;2023-06-24T09:35:23;25.80;97.50
19206;DHT22;59358;52.134;5.596;2023-06-24T09:37:51;25.80;97.80
19206;DHT22;59358;52.134;5.596;2023-06-24T09:40:18;25.80;97.60
19206;DHT22;59358;52.134;5.596;2023-06-24T09:42:51;26.00;97.80
19206;DHT22;59358;52.134;5.596;2023-06-24T09:45:26;26.00;98.50
19206;DHT22;59358;52.134;5.596;2023-06-24T09:47:54;26.10;98.70
19206;DHT22;59358;52.134;5.596;2023-06-24T09:50:22;26.20;98.40
19206;DHT22;59358;52.134;5.596;2023-06-24T09:52:50;26.30;98.50
19206;DHT22;59358;52.134;5.596;2023-06-24T09:55:18;26.60;98.10
19206;DHT22;59358;52.134;5.596;2023-06-24T09:57:46;26.50;98.20
19206;DHT22;59358;52.134;5.596;2023-06-24T10:00:15;26.40;96.80
19206;DHT22;59358;52.134;5.596;2023-06-24T10:02:43;26.50;97.60
19206;DHT22;59358;52.134;5.596;2023-06-24T10:05:12;26.40;98.50
19206;DHT22;59358;52.134;5.596;2023-06-24T10:07:40;26.50;97.90
19206;DHT22;59358;52.134;5.596;2023-06-24T10:10:08;26.50;98.20
19206;DHT22;59358;52.134;5.596;2023-06-24T10:12:36;26.50;97.70
19206;DHT22;59358;52.134;5.596;2023-06-24T10:15:04;26.70;97.70
19206;DHT22;59358;52.134;5.596;2023-06-24T10:17:31;26.60;97.70
19206;DHT22;59358;52.134;5.596;2023-06-24T10:19:58;26.90;97.80
19206;DHT22;59358;52.134;5.596;2023-06-24T10:22:31;26.90;97.50
19206;DHT22;59358;52.134;5.596;2023-06-24T10:25:00;27.00;97.50
19206;DHT22;59358;52.134;5.596;2023-06-24T10:27:27;27.30;97.60
19206;DHT22;59358;52.134;5.596;2023-06-24T10:30:02;27.50;97.20
19206;DHT22;59358;52.134;5.596;2023-06-24T10:32:40;27.20;97.70
19206;DHT22;59358;52.134;5.596;2023-06-24T10:35:21;27.50;97.60
19206;DHT22;59358;52.134;5.596;2023-06-24T10:37:55;27.60;97.30
19206;DHT22;59358;52.134;5.596;2023-06-24T10:40:36;27.60;97.40
19206;DHT22;59358;52.134;5.596;2023-06-24T10:43:25;27.60;97.30
19206;DHT22;59358;52.134;5.596;2023-06-24T10:45:53;27.70;96.40
19206;DHT22;59358;52.134;5.596;2023-06-24T10:48:20;28.10;97.00
19206;DHT22;59358;52.134;5.596;2023-06-24T10:50:48;28.30;95.90
19206;DHT22;59358;52.134;5.596;2023-06-24T10:53:17;28.00;96.10
19206;DHT22;59358;52.134;5.596;2023-06-24T10:55:45;28.10;96.80
19206;DHT22;59358;52.134;5.596;2023-06-24T10:58:14;28.40;96.10
19206;DHT22;59358;52.134;5.596;2023-06-24T11:00:42;28.40;96.60
19206;DHT22;59358;52.134;5.596;2023-06-24T11:03:12;28.50;96.90
19206;DHT22;59358;52.134;5.596;2023-06-24T11:05:40;28.40;96.10
19206;DHT22;59358;52.134;5.596;2023-06-24T11:08:09;28.40;96.10
19206;DHT22;59358;52.134;5.596;2023-06-24T11:10:43;28.50;96.50
19206;DHT22;59358;52.134;5.596;2023-06-24T11:13:11;28.60;95.60
19206;DHT22;59358;52.134;5.596;2023-06-24T11:15:38;28.80;96.00
19206;DHT22;59358;52.134;5.596;2023-06-24T11:18:08;28.90;95.40
19206;DHT22;59358;52.134;5.596;2023-06-24T11:20:36;29.30;95.10
19206;DHT22;59358;52.134;5.596;2023-06-24T11:23:06;29.20;94.40
19206;DHT22;59358;52.134;5.596;2023-06-24T11:25:39;29.10;94.60
19206;DHT22;59358;52.134;5.596;2023-06-24T11:28:12;29.10;95.20
19206;DHT22;59358;52.134;5.596;2023-06-24T11:30:39;29.20;94.70
19206;DHT22;59358;52.134;5.596;2023-06-24T11:33:06;29.50;94.70
19206;DHT22;59358;52.134;5.596;2023-06-24T11:35:33;29.60;93.30
19206;DHT22;59358;52.134;5.596;2023-06-24T11:38:01;29.60;94.00
19206;DHT22;59358;52.134;5.596;2023-06-24T11:40:31;29.80;94.50
19206;DHT22;59358;52.134;5.596;2023-06-24T11:43:00;29.50;94.50
19206;DHT22;59358;52.134;5.596;2023-06-24T11:45:29;29.70;93.20
19206;DHT22;59358;52.134;5.596;2023-06-24T11:48:02;30.00;93.50
19206;DHT22;59358;52.134;5.596;2023-06-24T11:50:31;30.20;93.90
19206;DHT22;59358;52.134;5.596;2023-06-24T11:52:58;30.50;94.60
19206;DHT22;59358;52.134;5.596;2023-06-24T11:55:25;30.80;93.00
19206;DHT22;59358;52.134;5.596;2023-06-24T11:57:55;31.20;92.80
19206;DHT22;59358;52.134;5.596;2023-06-24T12:00:25;31.00;91.80
19206;DHT22;59358;52.134;5.596;2023-06-24T12:02:57;30.90;91.90
19206;DHT22;59358;52.134;5.596;2023-06-24T12:05:26;31.20;91.80
19206;DHT22;59358;52.134;5.596;2023-06-24T12:07:58;30.80;92.20
19206;DHT22;59358;52.134;5.596;2023-06-24T12:10:25;30.90;92.00
19206;DHT22;59358;52.134;5.596;2023-06-24T12:12:52;30.50;91.70
19206;DHT22;59358;52.134;5.596;2023-06-24T12:15:19;30.40;92.40
19206;DHT22;59358;52.134;5.596;2023-06-24T12:17:46;29.90;92.60
19206;DHT22;59358;52.134;5.596;2023-06-24T12:20:20;29.50;92.70
19206;DHT22;59358;52.134;5.596;2023-06-24T12:22:48;29.50;93.50
19206;DHT22;59358;52.134;5.596;2023-06-24T12:25:16;30.30;93.90
19206;DHT22;59358;52.134;5.596;2023-06-24T12:27:44;30.90;92.60
19206;DHT22;59358;52.134;5.596;2023-06-24T12:30:11;31.20;91.90
19206;DHT22;59358;52.134;5.596;2023-06-24T12:32:38;31.40;91.70
19206;DHT22;59358;52.134;5.596;2023-06-24T12:35:06;31.90;91.80
19206;DHT22;59358;52.134;5.596;2023-06-24T12:37:35;32.20;90.90
19206;DHT22;59358;52.134;5.596;2023-06-24T12:40:03;32.30;91.00
19206;DHT22;59358;52.134;5.596;2023-06-24T12:42:30;31.90;91.10
19206;DHT22;59358;52.134;5.596;2023-06-24T12:44:57;31.60;91.50
19206;DHT22;59358;52.134;5.596;2023-06-24T12:47:24;31.60;91.30
19206;DHT22;59358;52.134;5.596;2023-06-24T12:49:51;31.80;92.30
19206;DHT22;59358;52.134;5.596;2023-06-24T12:52:18;31.60;91.30
19206;DHT22;59358;52.134;5.596;2023-06-24T12:54:47;31.30;92.00
19206;DHT22;59358;52.134;5.596;2023-06-24T12:57:14;30.90;91.40
19206;DHT22;59358;52.134;5.596;2023-06-24T12:59:41;31.20;93.10
19206;DHT22;59358;52.134;5.596;2023-06-24T13:02:08;31.60;92.20
19206;DHT22;59358;52.134;5.596;2023-06-24T13:04:35;32.20;90.80
19206;DHT22;59358;52.134;5.596;2023-06-24T13:07:02;32.20;90.10
19206;DHT22;59358;52.134;5.596;2023-06-24T13:09:29;32.40;91.60
19206;DHT22;59358;52.134;5.596;2023-06-24T13:11:58;32.30;90.20
19206;DHT22;59358;52.134;5.596;2023-06-24T13:14:25;32.30;90.80
19206;DHT22;59358;52.134;5.596;2023-06-24T13:16:53;32.30;90.10
19206;DHT22;59358;52.134;5.596;2023-06-24T13:19:20;32.30;91.40
19206;DHT22;59358;52.134;5.596;2023-06-24T13:21:47;31.80;92.50
19206;DHT22;59358;52.134;5.596;2023-06-24T13:24:14;31.70;91.10
19206;DHT22;59358;52.134;5.596;2023-06-24T13:26:41;32.30;91.70
19206;DHT22;59358;52.134;5.596;2023-06-24T13:29:09;32.50;90.70
19206;DHT22;59358;52.134;5.596;2023-06-24T13:31:36;32.60;90.30
19206;DHT22;59358;52.134;5.596;2023-06-24T13:34:03;33.00;87.30
19206;DHT22;59358;52.134;5.596;2023-06-24T13:36:32;33.10;90.00
19206;DHT22;59358;52.134;5.596;2023-06-24T13:39:01;33.10;90.00
19206;DHT22;59358;52.134;5.596;2023-06-24T13:41:27;32.90;89.40
19206;DHT22;59358;52.134;5.596;2023-06-24T13:43:58;32.90;88.60
19206;DHT22;59358;52.134;5.596;2023-06-24T13:46:27;32.90;88.90
19206;DHT22;59358;52.134;5.596;2023-06-24T13:48:54;32.10;89.50
19206;DHT22;59358;52.134;5.596;2023-06-24T13:51:21;31.70;90.40
19206;DHT22;59358;52.134;5.596;2023-06-24T13:53:48;31.10;91.10
19206;DHT22;59358;52.134;5.596;2023-06-24T13:56:16;31.20;90.90
19206;DHT22;59358;52.134;5.596;2023-06-24T13:58:43;31.40;90.30
19206;DHT22;59358;52.134;5.596;2023-06-24T14:01:10;31.30;90.60
19206;DHT22;59358;52.134;5.596;2023-06-24T14:03:38;31.10;90.70
19206;DHT22;59358;52.134;5.596;2023-06-24T14:06:05;31.40;91.00
19206;DHT22;59358;52.134;5.596;2023-06-24T14:08:33;31.70;91.30
19206;DHT22;59358;52.134;5.596;2023-06-24T14:11:00;31.60;91.20
19206;DHT22;59358;52.134;5.596;2023-06-24T14:13:27;31.70;90.90
19206;DHT22;59358;52.134;5.596;2023-06-24T14:15:54;32.10;90.70
19206;DHT22;59358;52.134;5.596;2023-06-24T14:18:21;32.30;90.20
19206;DHT22;59358;52.134;5.596;2023-06-24T14:20:50;32.10;91.10
19206;DHT22;59358;52.134;5.596;2023-06-24T14:23:17;31.60;90.50
19206;DHT22;59358;52.134;5.596;2023-06-24T14:25:44;31.60;91.30
19206;DHT22;59358;52.134;5.596;2023-06-24T14:28:11;31.50;91.00
19206;DHT22;59358;52.134;5.596;2023-06-24T14:30:37;31.80;90.80
19206;DHT22;59358;52.134;5.596;2023-06-24T14:33:04;33.00;88.90
19206;DHT22;59358;52.134;5.596;2023-06-24T14:35:31;33.60;85.90
19206;DHT22;59358;52.134;5.596;2023-06-24T14:37:59;34.00;84.90
19206;DHT22;59358;52.134;5.596;2023-06-24T14:40:26;34.40;86.00
19206;DHT22;59358;52.134;5.596;2023-06-24T14:42:53;35.30;84.00
19206;DHT22;59358;52.134;5.596;2023-06-24T14:45:20;36.00;82.70
19206;DHT22;59358;52.134;5.596;2023-06-24T14:47:47;35.90;81.10
19206;DHT22;59358;52.134;5.596;2023-06-24T14:50:14;35.30;83.20
19206;DHT22;59358;52.134;5.596;2023-06-24T14:52:41;34.40;83.10
19206;DHT22;59358;52.134;5.596;2023-06-24T14:55:09;34.20;83.30
19206;DHT22;59358;52.134;5.596;2023-06-24T14:57:36;33.70;85.00
19206;DHT22;59358;52.134;5.596;2023-06-24T15:00:05;33.20;87.30
19206;DHT22;59358;52.134;5.596;2023-06-24T15:02:32;32.40;88.50
19206;DHT22;59358;52.134;5.596;2023-06-24T15:04:59;31.50;90.10
19206;DHT22;59358;52.134;5.596;2023-06-24T15:07:25;31.30;90.40
19206;DHT22;59358;52.134;5.596;2023-06-24T15:09:52;31.20;91.00
19206;DHT22;59358;52.134;5.596;2023-06-24T15:12:20;31.20;91.40
19206;DHT22;59358;52.134;5.596;2023-06-24T15:14:48;31.40;90.80
19206;DHT22;59358;52.134;5.596;2023-06-24T15:17:14;31.00;91.00
19206;DHT22;59358;52.134;5.596;2023-06-24T15:19:41;31.10;91.80
19206;DHT22;59358;52.134;5.596;2023-06-24T15:22:08;31.20;90.70
19206;DHT22;59358;52.134;5.596;2023-06-24T15:24:36;31.40;90.00
19206;DHT22;59358;52.134;5.596;2023-06-24T15:27:03;31.00;90.20
19206;DHT22;59358;52.134;5.596;2023-06-24T15:29:32;30.60;90.60
19206;DHT22;59358;52.134;5.596;2023-06-24T15:31:58;30.40;91.90
19206;DHT22;59358;52.134;5.596;2023-06-24T15:36:52;30.40;91.10
19206;DHT22;59358;52.134;5.596;2023-06-24T15:39:20;30.10;90.90